sensor_id;sensor_type;location;lat;lon;timestamp;P1;durP1;ratioP1;P2;durP2;ratioP2
9657;SDS011;4867;48.112;11.622;2023-06-01T00:00:14;10.63;;;8.13;;
9657;SDS011;4867;48.112;11.622;2023-06-01T00:02:44;11.00;;;8.47;;
9657;SDS011;4867;48.112;11.622;2023-06-01T00:05:12;9.10;;;8.17;;
9657;SDS011;4867;48.112;11.622;2023-06-01T00:07:39;10.80;;;8.20;;
9657;SDS011;4867;48.112;11.622;2023-06-01T00:10:06;10.20;;;8.27;;
9657;SDS011;4867;48.112;11.622;2023-06-01T00:12:34;9.57;;;8.57;;
9657;SDS011;4867;48.112;11.622;2023-06-01T00:15:01;9.33;;;7.97;;
9657;SDS011;4867;48.112;11.622;2023-06-01T00:17:30;9.30;;;8.33;;
9657;SDS011;4867;48.112;11.622;2023-06-01T00:19:58;10.77;;;8.57;;
9657;SDS011;4867;48.112;11.622;2023-06-01T00:22:27;10.10;;;8.53;;
9657;SDS011;4867;48.112;11.622;2023-06-01T00:25:01;10.27;;;9.00;;
9657;SDS011;4867;48.112;11.622;2023-06-01T00:27:28;9.20;;;8.27;;
9657;SDS011;4867;48.112;11.622;2023-06-01T00:29:56;10.83;;;8.87;;
9657;SDS011;4867;48.112;11.622;2023-06-01T00:32:24;10.83;;;8.90;;
9657;SDS011;4867;48.112;11.622;2023-06-01T00:34:52;9.77;;;8.77;;
9657;SDS011;4867;48.112;11.622;2023-06-01T00:37:19;9.73;;;8.73;;
9657;SDS011;4867;48.112;11.622;2023-06-01T00:39:47;12.13;;;9.00;;
9657;SDS011;4867;48.112;11.622;2023-06-01T00:42:14;12.70;;;9.40;;
9657;SDS011;4867;48.112;11.622;2023-06-01T00:44:42;10.70;;;9.37;;
9657;SDS011;4867;48.112;11.622;2023-06-01T00:47:09;11.80;;;9.43;;
9657;SDS011;4867;48.112;11.622;2023-06-01T00:49:37;10.10;;;8.70;;
9657;SDS011;4867;48.112;11.622;2023-06-01T00:52:04;12.43;;;9.67;;
9657;SDS011;4867;48.112;11.622;2023-06-01T00:54:32;10.10;;;9.00;;
9657;SDS011;4867;48.112;11.622;2023-06-01T00:57:00;10.97;;;9.13;;
9657;SDS011;4867;48.112;11.622;2023-06-01T00:59:28;11.70;;;9.50;;
9657;SDS011;4867;48.112;11.622;2023-06-01T01:01:56;12.10;;;9.23;;
9657;SDS011;4867;48.112;11.622;2023-06-01T01:04:23;9.47;;;8.47;;
9657;SDS011;4867;48.112;11.622;2023-06-01T01:07:00;9.63;;;8.63;;
9657;SDS011;4867;48.112;11.622;2023-06-01T01:09:49;9.63;;;8.63;;
9657;SDS011;4867;48.112;11.622;2023-06-01T01:12:33;10.97;;;9.87;;
9657;SDS011;4867;48.112;11.622;2023-06-01T01:18:11;11.10;;;9.37;;
9657;SDS011;4867;48.112;11.622;2023-06-01T01:20:44;11.07;;;8.90;;
9657;SDS011;4867;48.112;11.622;2023-06-01T01:26:13;10.67;;;9.50;;
9657;SDS011;4867;48.112;11.622;2023-06-01T01:31:22;11.17;;;9.17;;
9657;SDS011;4867;48.112;11.622;2023-06-01T01:33:53;10.30;;;9.20;;
9657;SDS011;4867;48.112;11.622;2023-06-01T01:36:23;13.57;;;10.00;;
9657;SDS011;4867;48.112;11.622;2023-06-01T01:38:50;12.20;;;8.90;;
9657;SDS011;4867;48.112;11.622;2023-06-01T01:41:17;12.37;;;9.53;;
9657;SDS011;4867;48.112;11.622;2023-06-01T01:43:45;10.90;;;9.87;;
9657;SDS011;4867;48.112;11.622;2023-06-01T01:49:07;10.93;;;9.30;;
9657;SDS011;4867;48.112;11.622;2023-06-01T01:51:44;9.90;;;8.90;;
9657;SDS011;4867;48.112;11.622;2023-06-01T01:54:37;10.57;;;9.47;;
9657;SDS011;4867;48.112;11.622;2023-06-01T01:57:08;11.83;;;9.30;;
9657;SDS011;4867;48.112;11.622;2023-06-01T01:59:36;11.10;;;9.50;;
9657;SDS011;4867;48.112;11.622;2023-06-01T02:02:04;12.47;;;10.53;;
9657;SDS011;4867;48.112;11.622;2023-06-01T02:04:32;12.90;;;9.57;;
9657;SDS011;4867;48.112;11.622;2023-06-01T02:06:59;11.93;;;10.37;;
9657;SDS011;4867;48.112;11.622;2023-06-01T02:09:30;11.00;;;9.77;;
9657;SDS011;4867;48.112;11.622;2023-06-01T02:11:58;9.57;;;8.50;;
9657;SDS011;4867;48.112;11.622;2023-06-01T02:14:25;13.17;;;10.13;;
9657;SDS011;4867;48.112;11.622;2023-06-01T02:16:52;13.90;;;10.30;;
9657;SDS011;4867;48.112;11.622;2023-06-01T02:19:20;10.47;;;9.33;;
9657;SDS011;4867;48.112;11.622;2023-06-01T02:21:48;13.60;;;10.60;;
9657;SDS011;4867;48.112;11.622;2023-06-01T02:24:15;11.60;;;10.10;;
9657;SDS011;4867;48.112;11.622;2023-06-01T02:26:43;11.57;;;10.27;;
9657;SDS011;4867;48.112;11.622;2023-06-01T02:29:12;10.53;;;9.57;;
9657;SDS011;4867;48.112;11.622;2023-06-01T02:31:40;14.00;;;9.90;;
9657;SDS011;4867;48.112;11.622;2023-06-01T02:34:07;12.87;;;10.00;;
9657;SDS011;4867;48.112;11.622;2023-06-01T02:36:35;10.87;;;9.77;;
9657;SDS011;4867;48.112;11.622;2023-06-01T02:39:02;10.43;;;9.37;;
9657;SDS011;4867;48.112;11.622;2023-06-01T02:41:29;12.57;;;10.07;;
9657;SDS011;4867;48.112;11.622;2023-06-01T02:43:57;11.23;;;10.00;;
9657;SDS011;4867;48.112;11.622;2023-06-01T02:46:26;10.20;;;9.30;;
9657;SDS011;4867;48.112;11.622;2023-06-01T02:48:54;10.70;;;9.60;;
9657;SDS011;4867;48.112;11.622;2023-06-01T02:51:22;12.53;;;9.73;;
9657;SDS011;4867;48.112;11.622;2023-06-01T02:53:58;10.93;;;9.83;;
9657;SDS011;4867;48.112;11.622;2023-06-01T02:56:26;12.47;;;10.20;;
9657;SDS011;4867;48.112;11.622;2023-06-01T02:59:04;12.83;;;10.30;;
9657;SDS011;4867;48.112;11.622;2023-06-01T03:01:34;10.70;;;9.60;;
9657;SDS011;4867;48.112;11.622;2023-06-01T03:04:03;11.77;;;10.03;;
9657;SDS011;4867;48.112;11.622;2023-06-01T03:06:32;13.47;;;9.73;;
9657;SDS011;4867;48.112;11.622;2023-06-01T03:09:23;11.97;;;10.73;;
9657;SDS011;4867;48.112;11.622;2023-06-01T03:11:54;12.00;;;10.07;;
9657;SDS011;4867;48.112;11.622;2023-06-01T03:14:21;12.43;;;10.10;;
9657;SDS011;4867;48.112;11.622;2023-06-01T03:16:49;12.70;;;10.97;;
9657;SDS011;4867;48.112;11.622;2023-06-01T03:19:21;11.70;;;10.43;;
9657;SDS011;4867;48.112;11.622;2023-06-01T03:21:52;13.23;;;10.83;;
9657;SDS011;4867;48.112;11.622;2023-06-01T03:24:21;12.67;;;10.43;;
9657;SDS011;4867;48.112;11.622;2023-06-01T03:26:53;11.00;;;9.90;;
9657;SDS011;4867;48.112;11.622;2023-06-01T03:29:21;11.37;;;10.03;;
9657;SDS011;4867;48.112;11.622;2023-06-01T03:31:49;11.60;;;10.33;;
9657;SDS011;4867;48.112;11.622;2023-06-01T03:34:19;11.17;;;9.97;;
9657;SDS011;4867;48.112;11.622;2023-06-01T03:36:48;12.13;;;10.83;;
9657;SDS011;4867;48.112;11.622;2023-06-01T03:39:16;11.83;;;10.27;;
9657;SDS011;4867;48.112;11.622;2023-06-01T03:41:44;11.40;;;9.67;;
9657;SDS011;4867;48.112;11.622;2023-06-01T03:44:11;10.50;;;9.50;;
9657;SDS011;4867;48.112;11.622;2023-06-01T03:46:40;10.53;;;9.50;;
9657;SDS011;4867;48.112;11.622;2023-06-01T03:49:08;11.10;;;9.97;;
9657;SDS011;4867;48.112;11.622;2023-06-01T03:51:36;13.93;;;10.77;;
9657;SDS011;4867;48.112;11.622;2023-06-01T03:54:03;13.07;;;10.93;;
9657;SDS011;4867;48.112;11.622;2023-06-01T03:56:30;11.57;;;9.60;;
9657;SDS011;4867;48.112;11.622;2023-06-01T03:59:01;10.93;;;9.83;;
9657;SDS011;4867;48.112;11.622;2023-06-01T04:01:28;10.47;;;9.37;;
9657;SDS011;4867;48.112;11.622;2023-06-01T04:03:57;11.33;;;9.60;;
9657;SDS011;4867;48.112;11.622;2023-06-01T04:06:24;10.37;;;9.37;;
9657;SDS011;4867;48.112;11.622;2023-06-01T04:08:51;11.40;;;10.20;;
9657;SDS011;4867;48.112;11.622;2023-06-01T04:11:22;11.90;;;9.73;;
9657;SDS011;4867;48.112;11.622;2023-06-01T04:13:51;12.40;;;10.27;;
9657;SDS011;4867;48.112;11.622;2023-06-01T04:16:19;11.30;;;10.20;;
9657;SDS011;4867;48.112;11.622;2023-06-01T04:18:47;10.43;;;9.33;;
9657;SDS011;4867;48.112;11.622;2023-06-01T04:21:20;12.53;;;10.77;;
9657;SDS011;4867;48.112;11.622;2023-06-01T04:23:49;12.83;;;10.83;;
9657;SDS011;4867;48.112;11.622;2023-06-01T04:26:18;13.43;;;10.43;;
9657;SDS011;4867;48.112;11.622;2023-06-01T04:28:46;12.33;;;10.50;;
9657;SDS011;4867;48.112;11.622;2023-06-01T04:31:16;10.83;;;9.73;;
9657;SDS011;4867;48.112;11.622;2023-06-01T04:33:45;12.10;;;9.80;;
9657;SDS011;4867;48.112;11.622;2023-06-01T04:36:22;10.80;;;9.70;;
9657;SDS011;4867;48.112;11.622;2023-06-01T04:38:54;11.10;;;8.63;;
9657;SDS011;4867;48.112;11.622;2023-06-01T04:41:22;11.13;;;10.13;;
9657;SDS011;4867;48.112;11.622;2023-06-01T04:43:51;11.80;;;10.70;;
9657;SDS011;4867;48.112;11.622;2023-06-01T04:46:20;11.60;;;9.87;;
9657;SDS011;4867;48.112;11.622;2023-06-01T04:48:55;11.17;;;10.07;;
9657;SDS011;4867;48.112;11.622;2023-06-01T04:51:25;11.43;;;10.23;;
9657;SDS011;4867;48.112;11.622;2023-06-01T04:53:53;11.13;;;10.03;;
9657;SDS011;4867;48.112;11.622;2023-06-01T04:56:21;11.83;;;10.03;;
9657;SDS011;4867;48.112;11.622;2023-06-01T04:58:56;11.77;;;10.07;;
9657;SDS011;4867;48.112;11.622;2023-06-01T05:01:27;11.40;;;10.30;;
9657;SDS011;4867;48.112;11.622;2023-06-01T05:03:56;10.97;;;9.73;;
9657;SDS011;4867;48.112;11.622;2023-06-01T05:06:25;12.90;;;9.60;;
9657;SDS011;4867;48.112;11.622;2023-06-01T05:08:53;11.07;;;9.87;;
9657;SDS011;4867;48.112;11.622;2023-06-01T05:11:21;12.23;;;10.00;;
9657;SDS011;4867;48.112;11.622;2023-06-01T05:13:49;11.43;;;10.20;;
9657;SDS011;4867;48.112;11.622;2023-06-01T05:16:18;10.97;;;9.90;;
9657;SDS011;4867;48.112;11.622;2023-06-01T05:18:47;12.10;;;10.20;;
9657;SDS011;4867;48.112;11.622;2023-06-01T05:21:15;10.43;;;9.43;;
9657;SDS011;4867;48.112;11.622;2023-06-01T05:23:43;11.60;;;9.43;;
9657;SDS011;4867;48.112;11.622;2023-06-01T05:26:11;13.67;;;10.63;;
9657;SDS011;4867;48.112;11.622;2023-06-01T05:28:38;11.10;;;10.10;;
9657;SDS011;4867;48.112;11.622;2023-06-01T05:31:10;11.83;;;9.60;;
9657;SDS011;4867;48.112;11.622;2023-06-01T05:33:44;12.60;;;9.53;;
9657;SDS011;4867;48.112;11.622;2023-06-01T05:36:13;10.27;;;9.27;;
9657;SDS011;4867;48.112;11.622;2023-06-01T05:38:41;10.83;;;9.40;;
9657;SDS011;4867;48.112;11.622;2023-06-01T05:41:08;10.27;;;9.17;;
9657;SDS011;4867;48.112;11.622;2023-06-01T05:43:35;10.17;;;8.97;;
9657;SDS011;4867;48.112;11.622;2023-06-01T05:46:04;14.50;;;8.80;;
9657;SDS011;4867;48.112;11.622;2023-06-01T05:48:33;11.20;;;8.50;;
9657;SDS011;4867;48.112;11.622;2023-06-01T05:51:03;13.33;;;8.93;;
9657;SDS011;4867;48.112;11.622;2023-06-01T05:53:31;10.97;;;8.90;;
9657;SDS011;4867;48.112;11.622;2023-06-01T05:55:58;14.03;;;9.33;;
9657;SDS011;4867;48.112;11.622;2023-06-01T05:58:26;13.30;;;8.90;;
9657;SDS011;4867;48.112;11.622;2023-06-01T06:00:53;11.50;;;9.23;;
9657;SDS011;4867;48.112;11.622;2023-06-01T06:03:20;13.73;;;9.17;;
9657;SDS011;4867;48.112;11.622;2023-06-01T06:05:49;12.40;;;9.60;;
9657;SDS011;4867;48.112;11.622;2023-06-01T06:08:16;9.67;;;8.60;;
9657;SDS011;4867;48.112;11.622;2023-06-01T06:10:44;10.00;;;8.57;;
9657;SDS011;4867;48.112;11.622;2023-06-01T06:13:11;9.73;;;8.50;;
9657;SDS011;4867;48.112;11.622;2023-06-01T06:15:40;13.00;;;9.40;;
9657;SDS011;4867;48.112;11.622;2023-06-01T06:18:08;9.53;;;8.57;;
9657;SDS011;4867;48.112;11.622;2023-06-01T06:20:35;12.73;;;9.27;;
9657;SDS011;4867;48.112;11.622;2023-06-01T06:23:03;12.43;;;9.90;;
9657;SDS011;4867;48.112;11.622;2023-06-01T06:25:30;14.13;;;8.63;;
9657;SDS011;4867;48.112;11.622;2023-06-01T06:27:57;10.97;;;9.57;;
9657;SDS011;4867;48.112;11.622;2023-06-01T06:30:24;16.57;;;9.73;;
9657;SDS011;4867;48.112;11.622;2023-06-01T06:32:52;11.13;;;9.60;;
9657;SDS011;4867;48.112;11.622;2023-06-01T06:35:19;13.43;;;9.83;;
9657;SDS011;4867;48.112;11.622;2023-06-01T06:37:47;11.57;;;9.50;;
9657;SDS011;4867;48.112;11.622;2023-06-01T06:40:14;12.77;;;10.33;;
9657;SDS011;4867;48.112;11.622;2023-06-01T06:42:41;16.80;;;10.83;;
9657;SDS011;4867;48.112;11.622;2023-06-01T06:45:09;15.70;;;9.47;;
9657;SDS011;4867;48.112;11.622;2023-06-01T06:47:36;16.17;;;9.73;;
9657;SDS011;4867;48.112;11.622;2023-06-01T06:50:04;12.10;;;10.17;;
9657;SDS011;4867;48.112;11.622;2023-06-01T06:52:31;14.67;;;10.50;;
9657;SDS011;4867;48.112;11.622;2023-06-01T06:54:59;15.50;;;10.20;;
9657;SDS011;4867;48.112;11.622;2023-06-01T06:57:27;15.47;;;10.00;;
9657;SDS011;4867;48.112;11.622;2023-06-01T06:59:54;14.00;;;10.13;;
9657;SDS011;4867;48.112;11.622;2023-06-01T07:02:21;12.37;;;10.30;;
9657;SDS011;4867;48.112;11.622;2023-06-01T07:04:49;11.63;;;9.33;;
9657;SDS011;4867;48.112;11.622;2023-06-01T07:07:16;17.87;;;9.77;;
9657;SDS011;4867;48.112;11.622;2023-06-01T07:09:44;11.93;;;9.63;;
9657;SDS011;4867;48.112;11.622;2023-06-01T07:12:11;12.17;;;9.70;;
9657;SDS011;4867;48.112;11.622;2023-06-01T07:14:38;15.30;;;9.70;;
9657;SDS011;4867;48.112;11.622;2023-06-01T07:17:06;11.33;;;9.70;;
9657;SDS011;4867;48.112;11.622;2023-06-01T07:19:33;13.10;;;10.30;;
9657;SDS011;4867;48.112;11.622;2023-06-01T07:22:00;15.20;;;10.10;;
9657;SDS011;4867;48.112;11.622;2023-06-01T07:24:29;15.00;;;9.80;;
9657;SDS011;4867;48.112;11.622;2023-06-01T07:26:56;13.10;;;9.90;;
9657;SDS011;4867;48.112;11.622;2023-06-01T07:29:24;13.67;;;9.73;;
9657;SDS011;4867;48.112;11.622;2023-06-01T07:31:51;13.97;;;9.93;;
9657;SDS011;4867;48.112;11.622;2023-06-01T07:34:19;12.57;;;9.57;;
9657;SDS011;4867;48.112;11.622;2023-06-01T07:36:48;13.63;;;9.70;;
9657;SDS011;4867;48.112;11.622;2023-06-01T07:39:16;10.57;;;9.30;;
9657;SDS011;4867;48.112;11.622;2023-06-01T07:41:46;13.87;;;8.47;;
9657;SDS011;4867;48.112;11.622;2023-06-01T07:44:13;11.77;;;8.83;;
9657;SDS011;4867;48.112;11.622;2023-06-01T07:46:44;10.37;;;8.47;;
9657;SDS011;4867;48.112;11.622;2023-06-01T07:49:13;11.30;;;9.67;;
9657;SDS011;4867;48.112;11.622;2023-06-01T07:51:42;12.77;;;8.57;;
9657;SDS011;4867;48.112;11.622;2023-06-01T07:54:10;12.60;;;9.10;;
9657;SDS011;4867;48.112;11.622;2023-06-01T07:56:37;12.37;;;8.30;;
9657;SDS011;4867;48.112;11.622;2023-06-01T07:59:06;11.93;;;8.80;;
9657;SDS011;4867;48.112;11.622;2023-06-01T08:01:33;10.70;;;9.00;;
9657;SDS011;4867;48.112;11.622;2023-06-01T08:04:01;12.10;;;8.53;;
9657;SDS011;4867;48.112;11.622;2023-06-01T08:06:28;12.67;;;8.73;;
9657;SDS011;4867;48.112;11.622;2023-06-01T08:09:02;12.60;;;8.60;;
9657;SDS011;4867;48.112;11.622;2023-06-01T08:11:29;10.77;;;9.37;;
9657;SDS011;4867;48.112;11.622;2023-06-01T08:13:57;13.77;;;9.20;;
9657;SDS011;4867;48.112;11.622;2023-06-01T08:16:26;13.63;;;9.03;;
9657;SDS011;4867;48.112;11.622;2023-06-01T08:18:54;13.23;;;8.50;;
9657;SDS011;4867;48.112;11.622;2023-06-01T08:21:23;12.53;;;8.90;;
9657;SDS011;4867;48.112;11.622;2023-06-01T08:23:55;13.13;;;9.33;;
9657;SDS011;4867;48.112;11.622;2023-06-01T08:26:24;12.67;;;9.07;;
9657;SDS011;4867;48.112;11.622;2023-06-01T08:28:52;13.47;;;9.20;;
9657;SDS011;4867;48.112;11.622;2023-06-01T08:31:20;13.33;;;9.47;;
9657;SDS011;4867;48.112;11.622;2023-06-01T08:33:49;11.70;;;8.93;;
9657;SDS011;4867;48.112;11.622;2023-06-01T08:36:20;12.70;;;8.97;;
9657;SDS011;4867;48.112;11.622;2023-06-01T08:38:48;16.73;;;9.17;;
9657;SDS011;4867;48.112;11.622;2023-06-01T08:41:18;9.83;;;8.53;;
9657;SDS011;4867;48.112;11.622;2023-06-01T08:43:48;9.40;;;8.50;;
9657;SDS011;4867;48.112;11.622;2023-06-01T08:46:21;11.27;;;9.00;;
9657;SDS011;4867;48.112;11.622;2023-06-01T08:48:51;12.43;;;9.50;;
9657;SDS011;4867;48.112;11.622;2023-06-01T08:51:24;12.03;;;8.83;;
9657;SDS011;4867;48.112;11.622;2023-06-01T08:53:53;12.27;;;8.60;;
9657;SDS011;4867;48.112;11.622;2023-06-01T08:56:23;16.07;;;8.47;;
9657;SDS011;4867;48.112;11.622;2023-06-01T08:58:50;9.27;;;7.77;;
9657;SDS011;4867;48.112;11.622;2023-06-01T09:01:18;9.93;;;8.03;;
9657;SDS011;4867;48.112;11.622;2023-06-01T09:03:48;12.33;;;8.90;;
9657;SDS011;4867;48.112;11.622;2023-06-01T09:06:17;12.80;;;8.70;;
9657;SDS011;4867;48.112;11.622;2023-06-01T09:08:46;9.90;;;8.10;;
9657;SDS011;4867;48.112;11.622;2023-06-01T09:11:13;9.77;;;8.77;;
9657;SDS011;4867;48.112;11.622;2023-06-01T09:13:41;12.33;;;8.70;;
9657;SDS011;4867;48.112;11.622;2023-06-01T09:16:08;12.53;;;8.07;;
9657;SDS011;4867;48.112;11.622;2023-06-01T09:18:36;10.20;;;8.63;;
9657;SDS011;4867;48.112;11.622;2023-06-01T09:21:18;12.37;;;8.97;;
9657;SDS011;4867;48.112;11.622;2023-06-01T09:23:45;10.40;;;9.00;;
9657;SDS011;4867;48.112;11.622;2023-06-01T09:26:14;9.90;;;8.70;;
9657;SDS011;4867;48.112;11.622;2023-06-01T09:28:57;15.57;;;8.50;;
9657;SDS011;4867;48.112;11.622;2023-06-01T09:31:35;11.03;;;8.07;;
9657;SDS011;4867;48.112;11.622;2023-06-01T09:34:12;10.37;;;8.20;;
9657;SDS011;4867;48.112;11.622;2023-06-01T09:36:45;8.53;;;7.57;;
9657;SDS011;4867;48.112;11.622;2023-06-01T09:39:14;13.07;;;8.10;;
9657;SDS011;4867;48.112;11.622;2023-06-01T09:41:43;9.80;;;8.07;;
9657;SDS011;4867;48.112;11.622;2023-06-01T09:44:32;10.37;;;7.60;;
9657;SDS011;4867;48.112;11.622;2023-06-01T09:47:08;10.23;;;7.97;;
9657;SDS011;4867;48.112;11.622;2023-06-01T09:49:39;7.65;;;6.85;;
9657;SDS011;4867;48.112;11.622;2023-06-01T09:52:09;8.32;;;7.38;;
9657;SDS011;4867;48.112;11.622;2023-06-01T09:54:48;8.65;;;7.68;;
9657;SDS011;4867;48.112;11.622;2023-06-01T09:57:22;7.82;;;7.03;;
9657;SDS011;4867;48.112;11.622;2023-06-01T09:59:50;8.65;;;7.85;;
9657;SDS011;4867;48.112;11.622;2023-06-01T10:02:22;9.07;;;7.75;;
9657;SDS011;4867;48.112;11.622;2023-06-01T10:04:51;8.38;;;7.57;;
9657;SDS011;4867;48.112;11.622;2023-06-01T10:07:21;7.75;;;7.05;;
9657;SDS011;4867;48.112;11.622;2023-06-01T10:09:56;9.07;;;7.28;;
9657;SDS011;4867;48.112;11.622;2023-06-01T10:12:25;11.25;;;7.85;;
9657;SDS011;4867;48.112;11.622;2023-06-01T10:14:55;8.65;;;7.03;;
9657;SDS011;4867;48.112;11.622;2023-06-01T10:17:23;9.07;;;7.40;;
9657;SDS011;4867;48.112;11.622;2023-06-01T10:19:51;7.72;;;6.95;;
9657;SDS011;4867;48.112;11.622;2023-06-01T10:22:18;8.18;;;7.28;;
9657;SDS011;4867;48.112;11.622;2023-06-01T10:24:45;9.63;;;7.50;;
9657;SDS011;4867;48.112;11.622;2023-06-01T10:27:24;8.73;;;7.22;;
9657;SDS011;4867;48.112;11.622;2023-06-01T10:29:56;10.32;;;7.35;;
9657;SDS011;4867;48.112;11.622;2023-06-01T10:32:42;8.65;;;7.70;;
9657;SDS011;4867;48.112;11.622;2023-06-01T10:35:51;8.18;;;7.45;;
9657;SDS011;4867;48.112;11.622;2023-06-01T10:40:36;8.57;;;7.18;;
9657;SDS011;4867;48.112;11.622;2023-06-01T10:43:04;8.60;;;7.70;;
9657;SDS011;4867;48.112;11.622;2023-06-01T10:48:09;10.60;;;7.25;;
9657;SDS011;4867;48.112;11.622;2023-06-01T10:50:41;12.02;;;7.25;;
9657;SDS011;4867;48.112;11.622;2023-06-01T10:58:46;8.63;;;6.93;;
9657;SDS011;4867;48.112;11.622;2023-06-01T11:01:45;8.95;;;7.07;;
9657;SDS011;4867;48.112;11.622;2023-06-01T11:04:13;9.60;;;7.15;;
9657;SDS011;4867;48.112;11.622;2023-06-01T11:06:42;10.35;;;6.78;;
9657;SDS011;4867;48.112;11.622;2023-06-01T11:09:11;7.70;;;6.65;;
9657;SDS011;4867;48.112;11.622;2023-06-01T11:14:21;8.00;;;7.10;;
9657;SDS011;4867;48.112;11.622;2023-06-01T11:16:53;7.72;;;7.03;;
9657;SDS011;4867;48.112;11.622;2023-06-01T11:19:25;7.65;;;6.50;;
9657;SDS011;4867;48.112;11.622;2023-06-01T11:22:00;9.70;;;7.03;;
9657;SDS011;4867;48.112;11.622;2023-06-01T11:24:34;9.48;;;7.00;;
9657;SDS011;4867;48.112;11.622;2023-06-01T11:27:06;8.13;;;6.70;;
9657;SDS011;4867;48.112;11.622;2023-06-01T11:29:35;7.88;;;7.03;;
9657;SDS011;4867;48.112;11.622;2023-06-01T11:32:04;7.68;;;6.97;;
9657;SDS011;4867;48.112;11.622;2023-06-01T11:37:06;7.93;;;6.70;;
9657;SDS011;4867;48.112;11.622;2023-06-01T11:39:40;7.13;;;6.43;;
9657;SDS011;4867;48.112;11.622;2023-06-01T11:42:08;7.78;;;6.97;;
9657;SDS011;4867;48.112;11.622;2023-06-01T11:44:44;7.40;;;6.35;;
9657;SDS011;4867;48.112;11.622;2023-06-01T11:47:13;12.40;;;7.35;;
9657;SDS011;4867;48.112;11.622;2023-06-01T11:49:42;8.57;;;6.82;;
9657;SDS011;4867;48.112;11.622;2023-06-01T11:52:15;9.57;;;6.72;;
9657;SDS011;4867;48.112;11.622;2023-06-01T11:54:44;7.78;;;6.50;;
9657;SDS011;4867;48.112;11.622;2023-06-01T11:57:11;10.13;;;7.00;;
9657;SDS011;4867;48.112;11.622;2023-06-01T12:02:16;11.25;;;6.93;;
9657;SDS011;4867;48.112;11.622;2023-06-01T12:04:58;8.30;;;6.82;;
9657;SDS011;4867;48.112;11.622;2023-06-01T12:07:28;8.88;;;6.63;;
9657;SDS011;4867;48.112;11.622;2023-06-01T12:09:56;7.65;;;6.45;;
9657;SDS011;4867;48.112;11.622;2023-06-01T12:12:27;7.22;;;6.60;;
9657;SDS011;4867;48.112;11.622;2023-06-01T12:15:00;8.43;;;7.30;;
9657;SDS011;4867;48.112;11.622;2023-06-01T12:17:45;10.85;;;6.65;;
9657;SDS011;4867;48.112;11.622;2023-06-01T12:20:35;9.40;;;6.85;;
9657;SDS011;4867;48.112;11.622;2023-06-01T12:23:22;7.75;;;6.32;;
9657;SDS011;4867;48.112;11.622;2023-06-01T12:25:51;8.18;;;6.32;;
9657;SDS011;4867;48.112;11.622;2023-06-01T12:28:21;7.80;;;7.00;;
9657;SDS011;4867;48.112;11.622;2023-06-01T12:30:49;9.57;;;6.88;;
9657;SDS011;4867;48.112;11.622;2023-06-01T12:36:32;7.82;;;6.90;;
9657;SDS011;4867;48.112;11.622;2023-06-01T12:39:02;7.30;;;6.60;;
9657;SDS011;4867;48.112;11.622;2023-06-01T12:41:31;7.65;;;6.85;;
9657;SDS011;4867;48.112;11.622;2023-06-01T12:43:58;8.93;;;6.43;;
9657;SDS011;4867;48.112;11.622;2023-06-01T12:46:27;9.88;;;6.55;;
9657;SDS011;4867;48.112;11.622;2023-06-01T12:49:11;8.23;;;6.88;;
9657;SDS011;4867;48.112;11.622;2023-06-01T12:51:40;7.15;;;6.45;;
9657;SDS011;4867;48.112;11.622;2023-06-01T12:54:07;12.25;;;7.15;;
9657;SDS011;4867;48.112;11.622;2023-06-01T12:56:35;9.30;;;6.72;;
9657;SDS011;4867;48.112;11.622;2023-06-01T12:59:02;11.20;;;6.90;;
9657;SDS011;4867;48.112;11.622;2023-06-01T13:01:30;7.75;;;6.97;;
9657;SDS011;4867;48.112;11.622;2023-06-01T13:03:57;8.05;;;6.18;;
9657;SDS011;4867;48.112;11.622;2023-06-01T13:06:25;7.63;;;6.40;;
9657;SDS011;4867;48.112;11.622;2023-06-01T13:08:52;9.80;;;7.00;;
9657;SDS011;4867;48.112;11.622;2023-06-01T13:11:20;10.85;;;6.57;;
9657;SDS011;4867;48.112;11.622;2023-06-01T13:13:49;6.97;;;6.38;;
9657;SDS011;4867;48.112;11.622;2023-06-01T13:16:17;7.65;;;6.47;;
9657;SDS011;4867;48.112;11.622;2023-06-01T13:18:44;7.60;;;6.90;;
9657;SDS011;4867;48.112;11.622;2023-06-01T13:21:14;7.72;;;6.43;;
9657;SDS011;4867;48.112;11.622;2023-06-01T13:23:41;7.10;;;6.40;;
9657;SDS011;4867;48.112;11.622;2023-06-01T13:26:09;7.22;;;6.28;;
9657;SDS011;4867;48.112;11.622;2023-06-01T13:28:36;7.10;;;6.40;;
9657;SDS011;4867;48.112;11.622;2023-06-01T13:31:04;8.05;;;6.25;;
9657;SDS011;4867;48.112;11.622;2023-06-01T13:33:31;7.72;;;6.35;;
9657;SDS011;4867;48.112;11.622;2023-06-01T13:35:59;7.85;;;6.10;;
9657;SDS011;4867;48.112;11.622;2023-06-01T13:38:26;10.25;;;6.68;;
9657;SDS011;4867;48.112;11.622;2023-06-01T13:40:53;7.47;;;6.60;;
9657;SDS011;4867;48.112;11.622;2023-06-01T13:43:21;7.40;;;6.70;;
9657;SDS011;4867;48.112;11.622;2023-06-01T13:45:48;7.50;;;6.80;;
9657;SDS011;4867;48.112;11.622;2023-06-01T13:48:15;7.18;;;6.45;;
9657;SDS011;4867;48.112;11.622;2023-06-01T13:50:46;6.55;;;5.88;;
9657;SDS011;4867;48.112;11.622;2023-06-01T13:53:13;8.73;;;6.35;;
9657;SDS011;4867;48.112;11.622;2023-06-01T13:55:41;9.15;;;6.45;;
9657;SDS011;4867;48.112;11.622;2023-06-01T13:58:08;6.95;;;6.25;;
9657;SDS011;4867;48.112;11.622;2023-06-01T14:00:35;6.95;;;6.25;;
9657;SDS011;4867;48.112;11.622;2023-06-01T14:03:03;7.15;;;6.13;;
9657;SDS011;4867;48.112;11.622;2023-06-01T14:05:30;7.28;;;6.18;;
9657;SDS011;4867;48.112;11.622;2023-06-01T14:08:17;7.03;;;6.43;;
9657;SDS011;4867;48.112;11.622;2023-06-01T14:10:44;9.40;;;6.20;;
9657;SDS011;4867;48.112;11.622;2023-06-01T14:13:12;7.53;;;6.72;;
9657;SDS011;4867;48.112;11.622;2023-06-01T14:15:39;9.27;;;6.13;;
9657;SDS011;4867;48.112;11.622;2023-06-01T14:18:06;6.53;;;5.93;;
9657;SDS011;4867;48.112;11.622;2023-06-01T14:20:35;6.82;;;6.10;;
9657;SDS011;4867;48.112;11.622;2023-06-01T14:23:04;7.32;;;6.20;;
9657;SDS011;4867;48.112;11.622;2023-06-01T14:25:34;6.93;;;6.22;;
9657;SDS011;4867;48.112;11.622;2023-06-01T14:28:01;8.68;;;6.57;;
9657;SDS011;4867;48.112;11.622;2023-06-01T14:30:30;7.43;;;6.30;;
9657;SDS011;4867;48.112;11.622;2023-06-01T14:32:58;7.85;;;6.10;;
9657;SDS011;4867;48.112;11.622;2023-06-01T14:35:25;8.40;;;5.85;;
9657;SDS011;4867;48.112;11.622;2023-06-01T14:37:53;6.93;;;6.25;;
9657;SDS011;4867;48.112;11.622;2023-06-01T14:40:22;7.05;;;5.82;;
9657;SDS011;4867;48.112;11.622;2023-06-01T14:42:49;6.75;;;5.88;;
9657;SDS011;4867;48.112;11.622;2023-06-01T14:45:16;8.02;;;6.63;;
9657;SDS011;4867;48.112;11.622;2023-06-01T14:47:46;10.85;;;6.55;;
9657;SDS011;4867;48.112;11.622;2023-06-01T14:50:13;8.70;;;6.13;;
9657;SDS011;4867;48.112;11.622;2023-06-01T14:52:41;6.05;;;5.53;;
9657;SDS011;4867;48.112;11.622;2023-06-01T14:55:09;9.77;;;6.70;;
9657;SDS011;4867;48.112;11.622;2023-06-01T14:57:40;6.72;;;6.13;;
9657;SDS011;4867;48.112;11.622;2023-06-01T15:00:08;10.82;;;6.50;;
9657;SDS011;4867;48.112;11.622;2023-06-01T15:02:37;7.43;;;6.40;;
9657;SDS011;4867;48.112;11.622;2023-06-01T15:05:04;11.07;;;6.63;;
9657;SDS011;4867;48.112;11.622;2023-06-01T15:07:32;6.72;;;5.82;;
9657;SDS011;4867;48.112;11.622;2023-06-01T15:09:59;7.47;;;6.03;;
9657;SDS011;4867;48.112;11.622;2023-06-01T15:12:27;6.82;;;5.70;;
9657;SDS011;4867;48.112;11.622;2023-06-01T15:14:54;6.72;;;5.78;;
9657;SDS011;4867;48.112;11.622;2023-06-01T15:17:21;6.43;;;5.80;;
9657;SDS011;4867;48.112;11.622;2023-06-01T15:19:49;8.27;;;5.82;;
9657;SDS011;4867;48.112;11.622;2023-06-01T15:22:16;7.00;;;6.20;;
9657;SDS011;4867;48.112;11.622;2023-06-01T15:24:43;7.10;;;5.50;;
9657;SDS011;4867;48.112;11.622;2023-06-01T15:27:11;11.98;;;6.13;;
9657;SDS011;4867;48.112;11.622;2023-06-01T15:29:38;6.68;;;6.00;;
9657;SDS011;4867;48.112;11.622;2023-06-01T15:32:05;8.50;;;5.75;;
9657;SDS011;4867;48.112;11.622;2023-06-01T15:34:33;8.43;;;6.10;;
9657;SDS011;4867;48.112;11.622;2023-06-01T15:37:01;8.10;;;6.00;;